Time;durP1;ratioP1;P1;durP2;ratioP2;P2;SDS_P1;SDS_P2;PMS_P1;PMS_P2;Temp;Humidity;BMP_temperature;BMP_pressure;BME280_temperature;BME280_humidity;BME280_pressure;Samples;Min_cycle;Max_cycle;Signal;HPM_P1;HPM_P2
2023/12/21 00:00:40;;;;;;;;;;;;;;;5.03;66.40;98855.84;4498114;31;34189;-93
2023/12/21 00:03:08;;;;;;;;;;;;;;;5.13;66.18;98857.84;4498374;31;34291;-92
2023/12/21 00:05:54;;;;;;;;;;;;;;;4.99;66.63;98861.72;4488880;31;33815;-88
2023/12/21 00:08:24;;;;;;;;;;;;;;;5.13;65.99;98862.12;4500310;31;34149;-92
2023/12/21 00:10:52;;;;;;;;;;;;;;;4.78;67.28;98851.69;4500861;31;34244;-87
2023/12/21 00:13:22;;;;;;;;;;;;;;;5.00;66.80;98848.06;4496783;31;34348;-95
2023/12/21 00:15:50;;;;;;;;;;;;;;;5.03;66.75;98844.69;4483630;31;33484;-94
2023/12/21 00:18:17;;;;;;;;;;;;;;;5.05;66.86;98841.34;4501463;31;34441;-96
2023/12/21 00:20:45;;;;;;;;;;;;;;;5.06;66.97;98840.53;4493726;31;34556;-88
2023/12/21 00:23:13;;;;;;;;;;;;;;;5.15;66.68;98839.03;4494017;31;34977;-95
2023/12/21 00:25:40;;;;;;;;;;;;;;;5.03;67.21;98834.41;4492137;31;32964;-86
2023/12/21 00:28:08;;;;;;;;;;;;;;;5.23;66.49;98832.44;4499510;31;33277;-90
2023/12/21 00:30:36;;;;;;;;;;;;;;;5.22;66.40;98831.53;4498267;31;34087;-93
2023/12/21 00:33:03;;;;;;;;;;;;;;;4.85;66.87;98824.50;4486092;31;35100;-87
2023/12/21 00:35:30;;;;;;;;;;;;;;;4.52;68.68;98826.91;4485951;31;34285;-86
2023/12/21 00:37:58;;;;;;;;;;;;;;;4.81;67.54;98830.34;4497740;31;34121;-91
2023/12/21 00:40:25;;;;;;;;;;;;;;;5.02;66.93;98824.97;4483663;31;33150;-88
2023/12/21 00:42:53;;;;;;;;;;;;;;;4.80;67.42;98829.47;4494379;31;34470;-87
2023/12/21 00:45:20;;;;;;;;;;;;;;;4.75;67.73;98825.03;4495848;31;33214;-89
2023/12/21 00:47:48;;;;;;;;;;;;;;;4.91;66.94;98816.09;4484263;31;34203;-95
2023/12/21 00:50:18;;;;;;;;;;;;;;;4.91;67.08;98810.94;4497401;31;34165;-94
2023/12/21 00:52:46;;;;;;;;;;;;;;;4.47;68.20;98811.34;4491087;31;34137;-87
2023/12/21 00:55:16;;;;;;;;;;;;;;;4.88;66.22;98807.44;4484627;31;34010;-87
2023/12/21 00:57:43;;;;;;;;;;;;;;;4.69;66.16;98794.88;4487169;31;34799;-94
2023/12/21 01:00:31;;;;;;;;;;;;;;;4.92;65.98;98793.00;4497014;31;34089;-87
2023/12/21 01:03:01;;;;;;;;;;;;;;;5.03;65.39;98801.03;4494698;31;33499;-88
2023/12/21 01:05:28;;;;;;;;;;;;;;;5.01;65.35;98805.25;4493735;31;32465;-93
2023/12/21 01:07:56;;;;;;;;;;;;;;;5.02;65.02;98810.44;4485083;31;32798;-88
2023/12/21 01:10:24;;;;;;;;;;;;;;;4.42;65.90;98799.19;4487383;31;35132;-93
2023/12/21 01:12:55;;;;;;;;;;;;;;;4.88;65.22;98801.44;4486087;31;33879;-93
2023/12/21 01:15:43;;;;;;;;;;;;;;;4.47;65.57;98798.53;4492151;31;34004;-93
2023/12/21 01:18:11;;;;;;;;;;;;;;;4.70;64.51;98794.09;4484742;31;32936;-92
2023/12/21 01:20:41;;;;;;;;;;;;;;;5.07;62.76;98798.56;4488147;31;34246;-92
2023/12/21 01:23:09;;;;;;;;;;;;;;;4.76;63.80;98791.69;4492618;31;34894;-88
2023/12/21 01:26:17;;;;;;;;;;;;;;;5.23;62.15;98781.91;4489406;31;33229;-92
2023/12/21 01:29:05;;;;;;;;;;;;;;;5.54;61.20;98780.16;4482508;31;33782;-88
2023/12/21 01:31:32;;;;;;;;;;;;;;;5.19;62.48;98776.63;4490717;31;34044;-87
2023/12/21 01:34:01;;;;;;;;;;;;;;;5.32;61.67;98776.16;4494069;31;33930;-94
2023/12/21 01:36:28;;;;;;;;;;;;;;;5.64;61.35;98770.97;4481000;31;32733;-94
2023/12/21 01:38:59;;;;;;;;;;;;;;;5.57;61.88;98759.69;4494832;31;32983;-94
2023/12/21 01:41:48;;;;;;;;;;;;;;;5.64;61.84;98761.56;4476751;31;33795;-94
2023/12/21 01:44:15;;;;;;;;;;;;;;;5.43;62.80;98753.31;4494944;31;33873;-95
2023/12/21 01:47:23;;;;;;;;;;;;;;;5.51;62.60;98754.38;4490984;31;34839;-90
2023/12/21 01:49:51;;;;;;;;;;;;;;;5.17;63.89;98763.75;4478765;31;32884;-89
2023/12/21 01:52:19;;;;;;;;;;;;;;;5.30;63.70;98745.28;4482770;31;33992;-88
2023/12/21 01:54:48;;;;;;;;;;;;;;;5.30;63.95;98745.28;4489430;31;34113;-94
2023/12/21 01:57:20;;;;;;;;;;;;;;;5.59;62.86;98743.44;4485010;31;33493;-90
2023/12/21 01:59:47;;;;;;;;;;;;;;;5.71;62.64;98742.00;4484530;31;33875;-88
2023/12/21 02:02:15;;;;;;;;;;;;;;;5.77;62.52;98743.03;4489740;31;34097;-88
2023/12/21 02:04:43;;;;;;;;;;;;;;;5.78;62.66;98736.19;4499889;31;34153;-96
2023/12/21 02:07:11;;;;;;;;;;;;;;;5.62;63.31;98733.25;4495574;31;33120;-91
2023/12/21 02:09:38;;;;;;;;;;;;;;;5.75;62.86;98724.12;4499218;31;34056;-90
2023/12/21 02:12:06;;;;;;;;;;;;;;;5.67;63.22;98729.91;4498261;31;34151;-95
2023/12/21 02:14:33;;;;;;;;;;;;;;;5.53;63.71;98721.84;4480802;31;33483;-96
2023/12/21 02:17:05;;;;;;;;;;;;;;;5.76;63.10;98713.03;4502494;31;34349;-96
2023/12/21 02:19:32;;;;;;;;;;;;;;;5.73;63.29;98715.50;4494427;31;34030;-95
2023/12/21 02:21:59;;;;;;;;;;;;;;;5.70;63.27;98720.56;4472661;32;34339;-96
2023/12/21 02:24:33;;;;;;;;;;;;;;;5.67;63.53;98712.78;4473643;32;32865;-96
2023/12/21 02:27:01;;;;;;;;;;;;;;;5.56;63.95;98716.78;4487084;32;34160;-96
2023/12/21 02:29:28;;;;;;;;;;;;;;;5.70;63.72;98710.28;4487857;31;32528;-96
2023/12/21 02:31:55;;;;;;;;;;;;;;;5.68;63.69;98706.78;4501721;31;33861;-94
2023/12/21 02:34:23;;;;;;;;;;;;;;;5.83;63.26;98707.19;4501428;31;33912;-96
2023/12/21 02:36:50;;;;;;;;;;;;;;;5.81;63.33;98698.56;4491364;31;33976;-96
2023/12/21 02:39:18;;;;;;;;;;;;;;;5.71;63.47;98701.72;4485609;31;33966;-95
2023/12/21 02:41:46;;;;;;;;;;;;;;;5.62;63.74;98694.66;4486414;32;34047;-88
2023/12/21 02:44:13;;;;;;;;;;;;;;;5.34;64.87;98712.78;4486032;32;34483;-94
2023/12/21 02:46:41;;;;;;;;;;;;;;;5.31;64.90;98703.31;4485957;32;34304;-91
2023/12/21 02:49:08;;;;;;;;;;;;;;;5.25;65.10;98705.72;4485808;32;33044;-90
2023/12/21 02:51:56;;;;;;;;;;;;;;;5.17;65.71;98699.50;4490449;31;34199;-96
2023/12/21 02:54:23;;;;;;;;;;;;;;;5.10;66.22;98700.16;4476466;31;34115;-90
2023/12/21 02:56:50;;;;;;;;;;;;;;;5.23;65.62;98688.53;4503796;31;33096;-96
2023/12/21 02:59:18;;;;;;;;;;;;;;;5.39;64.93;98698.37;4502811;31;34951;-90
2023/12/21 03:01:45;;;;;;;;;;;;;;;5.47;64.84;98683.13;4518653;31;33741;-96
2023/12/21 03:04:13;;;;;;;;;;;;;;;5.44;64.73;98683.06;4519552;31;35744;-95
2023/12/21 03:06:56;;;;;;;;;;;;;;;5.06;65.12;98682.94;4506761;31;34265;-96
2023/12/21 03:09:24;;;;;;;;;;;;;;;5.33;64.50;98693.91;4503209;31;33775;-95
2023/12/21 03:11:51;;;;;;;;;;;;;;;5.12;64.84;98683.09;4488390;31;33258;-95
2023/12/21 03:14:22;;;;;;;;;;;;;;;5.12;64.50;98689.09;4503822;31;33800;-95
2023/12/21 03:16:49;;;;;;;;;;;;;;;5.50;63.76;98690.94;4488900;31;33581;-96
2023/12/21 03:19:16;;;;;;;;;;;;;;;5.63;63.25;98680.09;4477545;31;34005;-95
2023/12/21 03:21:44;;;;;;;;;;;;;;;5.52;63.82;98681.53;4490391;31;33786;-96
2023/12/21 03:24:11;;;;;;;;;;;;;;;5.31;64.32;98679.31;4508382;31;35082;-93
2023/12/21 03:26:39;;;;;;;;;;;;;;;5.49;63.91;98676.31;4479793;31;33297;-96
2023/12/21 03:29:07;;;;;;;;;;;;;;;5.57;63.76;98678.28;4498088;31;34782;-90
2023/12/21 03:31:34;;;;;;;;;;;;;;;5.48;64.09;98682.28;4489181;31;34612;-96
2023/12/21 03:34:01;;;;;;;;;;;;;;;5.54;63.84;98677.31;4508479;31;34960;-96
2023/12/21 03:36:49;;;;;;;;;;;;;;;5.63;63.64;98669.81;4502715;31;33285;-90
2023/12/21 03:39:16;;;;;;;;;;;;;;;5.54;63.82;98667.03;4499135;31;33637;-93
2023/12/21 03:41:43;;;;;;;;;;;;;;;5.29;64.47;98671.53;4514174;31;34403;-94
2023/12/21 03:44:11;;;;;;;;;;;;;;;5.26;64.33;98680.88;4502639;31;35145;-91
2023/12/21 03:46:38;;;;;;;;;;;;;;;5.48;63.69;98677.16;4503523;31;33519;-96
2023/12/21 03:49:05;;;;;;;;;;;;;;;5.45;63.74;98675.37;4476003;31;33646;-96
2023/12/21 03:51:34;;;;;;;;;;;;;;;5.56;63.32;98679.06;4487929;31;34210;-94
2023/12/21 03:54:01;;;;;;;;;;;;;;;5.59;63.19;98671.44;4500618;31;33835;-96
2023/12/21 03:56:29;;;;;;;;;;;;;;;5.69;63.05;98677.69;4494442;31;32976;-94
2023/12/21 03:58:56;;;;;;;;;;;;;;;5.76;62.69;98665.84;4503313;31;34818;-95
2023/12/21 04:01:24;;;;;;;;;;;;;;;5.59;63.29;98660.28;4513903;31;34051;-96
2023/12/21 04:03:54;;;;;;;;;;;;;;;5.51;63.54;98651.53;4490027;31;33616;-93
2023/12/21 04:06:42;;;;;;;;;;;;;;;5.54;63.62;98647.34;4493640;31;33067;-95
2023/12/21 04:09:09;;;;;;;;;;;;;;;5.62;63.49;98632.09;4502708;31;33612;-94
2023/12/21 04:11:57;;;;;;;;;;;;;;;5.50;63.55;98631.81;4516010;31;33863;-96
2023/12/21 04:14:24;;;;;;;;;;;;;;;5.59;63.37;98634.56;4508069;31;33547;-94
2023/12/21 04:17:11;;;;;;;;;;;;;;;4.44;66.35;98646.13;4502533;31;33110;-95
2023/12/21 04:19:39;;;;;;;;;;;;;;;5.11;64.82;98629.94;4496235;31;34581;-92
2023/12/21 04:22:27;;;;;;;;;;;;;;;5.32;64.20;98630.50;4521559;31;34889;-96
2023/12/21 04:24:54;;;;;;;;;;;;;;;5.23;64.60;98629.44;4523482;31;35332;-95
2023/12/21 04:27:23;;;;;;;;;;;;;;;4.91;65.28;98633.72;4508429;31;32518;-91
2023/12/21 04:29:50;;;;;;;;;;;;;;;5.19;64.84;98627.56;4517273;31;33190;-88
2023/12/21 04:32:19;;;;;;;;;;;;;;;5.34;64.21;98623.72;4509746;31;34340;-94
2023/12/21 04:34:46;;;;;;;;;;;;;;;4.10;67.39;98633.19;4521039;31;33804;-92
2023/12/21 04:37:13;;;;;;;;;;;;;;;4.67;65.88;98614.25;4512254;31;34240;-88
2023/12/21 04:39:41;;;;;;;;;;;;;;;5.02;64.63;98609.19;4497672;31;34622;-95
2023/12/21 04:42:08;;;;;;;;;;;;;;;5.13;64.39;98605.19;4505697;31;34270;-95
2023/12/21 04:44:46;;;;;;;;;;;;;;;5.06;64.71;98595.56;4511305;31;32941;-89
2023/12/21 04:47:13;;;;;;;;;;;;;;;5.14;64.41;98599.19;4510640;31;34237;-89
2023/12/21 04:49:52;;;;;;;;;;;;;;;5.13;64.52;98603.47;4508762;31;34171;-93
2023/12/21 04:52:19;;;;;;;;;;;;;;;5.21;64.50;98595.97;4527043;31;34090;-89
2023/12/21 04:54:47;;;;;;;;;;;;;;;5.43;63.79;98587.06;4517583;31;34268;-95
2023/12/21 04:57:14;;;;;;;;;;;;;;;5.46;63.57;98586.28;4510553;31;33220;-88
2023/12/21 05:00:07;;;;;;;;;;;;;;;5.68;62.89;98585.91;4527977;31;33844;-91
2023/12/21 05:02:34;;;;;;;;;;;;;;;5.57;62.91;98579.69;4526234;31;34101;-90
2023/12/21 05:05:01;;;;;;;;;;;;;;;5.48;63.07;98575.19;4514668;31;34903;-91
2023/12/21 05:07:39;;;;;;;;;;;;;;;5.36;63.38;98570.63;4512000;31;32268;-89
2023/12/21 05:10:06;;;;;;;;;;;;;;;5.36;63.03;98560.34;4512297;31;34754;-95
2023/12/21 05:12:34;;;;;;;;;;;;;;;5.43;62.50;98563.06;4526732;31;34355;-92
2023/12/21 05:15:05;;;;;;;;;;;;;;;5.46;62.28;98550.28;4514908;31;33389;-89
2023/12/21 05:17:32;;;;;;;;;;;;;;;5.34;62.41;98554.31;4520299;31;33505;-88
2023/12/21 05:19:59;;;;;;;;;;;;;;;5.41;62.05;98554.44;4520605;31;33887;-94
2023/12/21 05:22:36;;;;;;;;;;;;;;;5.30;62.00;98560.22;4504430;31;33865;-90
2023/12/21 05:25:03;;;;;;;;;;;;;;;5.03;62.32;98562.97;4489312;31;34661;-96
2023/12/21 05:27:31;;;;;;;;;;;;;;;5.16;62.15;98560.72;4504617;31;32161;-96
2023/12/21 05:29:59;;;;;;;;;;;;;;;5.23;61.86;98558.34;4502867;31;34706;-94
2023/12/21 05:32:26;;;;;;;;;;;;;;;5.23;61.89;98548.06;4489988;31;33798;-91
2023/12/21 05:34:54;;;;;;;;;;;;;;;5.30;61.44;98544.81;4495785;31;33278;-96
2023/12/21 05:37:22;;;;;;;;;;;;;;;5.23;61.50;98548.06;4482011;31;33588;-96
2023/12/21 05:40:06;;;;;;;;;;;;;;;5.29;61.14;98548.19;4484978;31;33277;-96
2023/12/21 05:42:35;;;;;;;;;;;;;;;5.04;61.64;98551.00;4503969;31;33868;-89
2023/12/21 05:45:03;;;;;;;;;;;;;;;5.01;61.81;98545.78;4488581;31;32952;-96
2023/12/21 05:47:31;;;;;;;;;;;;;;;4.91;61.88;98543.81;4510659;31;33029;-96
2023/12/21 05:49:59;;;;;;;;;;;;;;;4.97;61.62;98549.12;4516121;31;34974;-95
2023/12/21 05:52:47;;;;;;;;;;;;;;;4.93;61.80;98543.03;4512432;31;34020;-92
2023/12/21 05:55:25;;;;;;;;;;;;;;;4.92;61.50;98536.13;4488943;31;33747;-90
2023/12/21 05:57:53;;;;;;;;;;;;;;;4.87;61.75;98532.59;4502623;31;34192;-90
2023/12/21 06:00:21;;;;;;;;;;;;;;;4.83;61.81;98536.78;4512327;31;33918;-93
2023/12/21 06:02:48;;;;;;;;;;;;;;;4.78;61.78;98537.50;4491494;31;34257;-95
2023/12/21 06:05:17;;;;;;;;;;;;;;;4.64;62.10;98532.00;4510549;31;34603;-96
2023/12/21 06:07:44;;;;;;;;;;;;;;;4.57;62.31;98535.25;4509705;31;34027;-90
2023/12/21 06:10:12;;;;;;;;;;;;;;;4.78;61.81;98538.37;4516593;31;34996;-90
2023/12/21 06:12:39;;;;;;;;;;;;;;;4.78;61.62;98535.81;4514060;31;35073;-93
2023/12/21 06:15:07;;;;;;;;;;;;;;;4.69;61.82;98529.56;4502607;31;35552;-92
2023/12/21 06:17:38;;;;;;;;;;;;;;;4.72;61.69;98533.06;4481906;31;31773;-95
2023/12/21 06:20:06;;;;;;;;;;;;;;;4.74;61.68;98531.44;4494699;31;34126;-91
2023/12/21 06:22:43;;;;;;;;;;;;;;;4.70;61.86;98532.19;4486723;31;34497;-93
2023/12/21 06:25:18;;;;;;;;;;;;;;;4.49;62.16;98513.63;4523323;31;33902;-92
2023/12/21 06:27:47;;;;;;;;;;;;;;;4.49;62.25;98503.38;4496392;31;33980;-91
2023/12/21 06:30:47;;;;;;;;;;;;;;;4.24;63.09;98512.09;4513931;31;34428;-93
2023/12/21 06:33:16;;;;;;;;;;;;;;;4.15;63.55;98512.72;4472011;31;34639;-94
2023/12/21 06:35:43;;;;;;;;;;;;;;;3.98;64.73;98519.06;4498357;31;33968;-94
2023/12/21 06:39:03;;;;;;;;;;;;;;;4.31;63.74;98514.00;4497613;31;32619;-94
2023/12/21 06:41:52;;;;;;;;;;;;;;;4.45;63.31;98512.69;4513236;31;34958;-94
2023/12/21 06:44:21;;;;;;;;;;;;;;;4.45;63.57;98514.41;4491519;31;34378;-96
2023/12/21 06:46:48;;;;;;;;;;;;;;;4.34;63.79;98503.84;4491570;31;33728;-93
2023/12/21 06:49:30;;;;;;;;;;;;;;;4.27;63.98;98507.94;4467206;31;32252;-96
2023/12/21 06:51:57;;;;;;;;;;;;;;;4.46;63.38;98519.56;4465214;31;33007;-96
2023/12/21 06:54:34;;;;;;;;;;;;;;;4.52;63.10;98517.16;4478025;31;34367;-94
2023/12/21 06:57:02;;;;;;;;;;;;;;;4.51;63.14;98518.00;4488633;31;32837;-96
2023/12/21 06:59:31;;;;;;;;;;;;;;;4.51;62.94;98512.88;4491172;31;32294;-96
2023/12/21 07:05:07;;;;;;;;;;;;;;;4.58;62.85;98499.37;4500129;31;33097;-96
2023/12/21 07:07:42;;;;;;;;;;;;;;;4.66;62.54;98490.97;4491703;31;33002;-96
2023/12/21 07:10:18;;;;;;;;;;;;;;;4.54;62.78;98494.94;4491209;31;32998;-96
2023/12/21 07:12:46;;;;;;;;;;;;;;;4.63;62.66;98486.63;4491339;31;32728;-95
2023/12/21 07:15:27;;;;;;;;;;;;;;;4.36;63.29;98479.09;4479533;31;34732;-95
2023/12/21 07:17:59;;;;;;;;;;;;;;;4.22;63.74;98476.16;4472573;31;33326;-96
2023/12/21 07:20:30;;;;;;;;;;;;;;;3.22;67.01;98477.56;4463172;31;32198;-96
2023/12/21 07:23:35;;;;;;;;;;;;;;;3.79;66.17;98479.22;4479329;31;33077;-96
2023/12/21 07:26:03;;;;;;;;;;;;;;;3.98;65.73;98480.59;4483616;31;34492;-94
2023/12/21 07:28:31;;;;;;;;;;;;;;;3.56;67.44;98483.69;4462658;31;33390;-96
2023/12/21 07:30:59;;;;;;;;;;;;;;;3.80;66.99;98474.16;4462458;31;32710;-92
2023/12/21 07:33:28;;;;;;;;;;;;;;;3.77;68.58;98457.81;4513470;31;34321;-95
2023/12/21 07:36:02;;;;;;;;;;;;;;;3.68;70.29;98457.56;4508209;31;33772;-96
2023/12/21 07:38:44;;;;;;;;;;;;;;;3.65;70.73;98464.34;4491619;31;32971;-96
2023/12/21 07:41:12;;;;;;;;;;;;;;;4.02;70.50;98460.25;4479099;31;34058;-92
2023/12/21 07:43:44;;;;;;;;;;;;;;;4.19;70.01;98463.25;4505649;31;34624;-96
2023/12/21 07:46:13;;;;;;;;;;;;;;;4.21;70.90;98459.03;4477178;31;33132;-92
2023/12/21 07:48:44;;;;;;;;;;;;;;;4.28;71.21;98442.97;4490722;31;33344;-96
2023/12/21 07:51:12;;;;;;;;;;;;;;;3.92;72.78;98449.69;4472004;31;87325;-96
2023/12/21 07:53:46;;;;;;;;;;;;;;;4.21;71.86;98451.34;4474764;31;33086;-93
2023/12/21 07:56:17;;;;;;;;;;;;;;;4.30;71.39;98451.56;4473087;32;33320;-96
2023/12/21 07:58:46;;;;;;;;;;;;;;;4.44;70.63;98444.22;4460080;32;33917;-93
2023/12/21 08:01:37;;;;;;;;;;;;;;;4.28;70.81;98442.09;4487486;32;33460;-96
2023/12/21 08:04:07;;;;;;;;;;;;;;;4.30;71.03;98449.00;4471018;32;33952;-92
2023/12/21 08:06:48;;;;;;;;;;;;;;;4.60;69.92;98451.47;4472126;32;33566;-94
2023/12/21 08:09:17;;;;;;;;;;;;;;;4.71;69.76;98436.34;4484701;32;33216;-94
2023/12/21 08:11:51;;;;;;;;;;;;;;;4.71;69.59;98428.63;4472607;31;32837;-89
2023/12/21 08:14:19;;;;;;;;;;;;;;;4.96;68.74;98426.62;4469644;32;33352;-91
2023/12/21 08:16:53;;;;;;;;;;;;;;;4.84;68.73;98432.34;4487017;32;35126;-96
2023/12/21 08:19:21;;;;;;;;;;;;;;;4.82;68.81;98437.47;4489768;32;34910;-95
2023/12/21 08:22:16;;;;;;;;;;;;;;;4.98;68.52;98437.81;4477593;32;33478;-93
2023/12/21 08:24:45;;;;;;;;;;;;;;;4.96;68.67;98430.06;4487089;32;32786;-92
2023/12/21 08:27:35;;;;;;;;;;;;;;;5.14;68.01;98419.34;4487022;31;33602;-96
2023/12/21 08:30:13;;;;;;;;;;;;;;;5.03;68.74;98420.81;4474553;32;33191;-96
2023/12/21 08:33:19;;;;;;;;;;;;;;;4.99;68.95;98425.00;4462985;32;33804;-96
2023/12/21 08:36:13;;;;;;;;;;;;;;;4.96;69.05;98424.06;4459138;32;34685;-91
2023/12/21 08:38:58;;;;;;;;;;;;;;;5.06;68.63;98416.59;4471084;32;34480;-96
2023/12/21 08:41:31;;;;;;;;;;;;;;;5.10;68.76;98420.12;4473967;32;34498;-95
2023/12/21 08:44:19;;;;;;;;;;;;;;;5.11;68.68;98429.53;4459055;32;32567;-96
2023/12/21 08:46:53;;;;;;;;;;;;;;;5.05;68.80;98429.44;4472021;32;33219;-94
2023/12/21 08:49:35;;;;;;;;;;;;;;;5.13;68.74;98438.16;4436008;32;32983;-96
2023/12/21 08:52:28;;;;;;;;;;;;;;;5.03;69.16;98437.09;4479080;31;35011;-96
2023/12/21 08:55:17;;;;;;;;;;;;;;;5.07;68.98;98432.88;4427979;32;34151;-94
2023/12/21 08:58:15;;;;;;;;;;;;;;;5.24;68.70;98423.87;4394994;32;33771;-94
2023/12/21 09:00:51;;;;;;;;;;;;;;;5.19;68.59;98422.91;4398899;32;33042;-94
2023/12/21 09:03:43;;;;;;;;;;;;;;;5.12;68.94;98427.03;4413103;32;34149;-92
2023/12/21 09:06:32;;;;;;;;;;;;;;;5.48;68.12;98425.22;4415408;32;34538;-96
2023/12/21 09:09:31;;;;;;;;;;;;;;;5.39;67.91;98415.63;4422514;32;33747;-94
2023/12/21 09:12:09;;;;;;;;;;;;;;;5.58;67.86;98427.16;4416031;32;33164;-96
2023/12/21 09:14:44;;;;;;;;;;;;;;;5.62;67.83;98423.81;4421879;32;34267;-96
2023/12/21 09:17:57;;;;;;;;;;;;;;;5.77;67.18;98424.09;4415116;32;35095;-94
2023/12/21 09:20:39;;;;;;;;;;;;;;;5.74;67.59;98434.31;4405029;32;34580;-95
2023/12/21 09:23:22;;;;;;;;;;;;;;;5.91;66.97;98420.91;4396485;32;33348;-91
2023/12/21 09:25:50;;;;;;;;;;;;;;;6.04;66.48;98402.34;4393496;32;35063;-92
2023/12/21 09:28:20;;;;;;;;;;;;;;;6.07;66.53;98404.97;4406008;32;33329;-93
2023/12/21 09:30:51;;;;;;;;;;;;;;;5.64;67.77;98400.69;4402032;32;32740;-96
2023/12/21 09:36:11;;;;;;;;;;;;;;;6.22;66.05;98389.81;4437812;32;34394;-94
2023/12/21 09:38:42;;;;;;;;;;;;;;;5.97;66.83;98396.22;4447636;32;32403;-92
2023/12/21 09:41:09;;;;;;;;;;;;;;;6.14;66.46;98395.66;4420674;32;33837;-96
2023/12/21 09:43:57;;;;;;;;;;;;;;;5.78;67.24;98389.81;4432340;32;34249;-92
2023/12/21 09:46:39;;;;;;;;;;;;;;;6.13;66.45;98371.63;4410325;32;34333;-95
2023/12/21 09:49:07;;;;;;;;;;;;;;;6.41;65.68;98361.81;4421616;32;33489;-96
2023/12/21 09:52:00;;;;;;;;;;;;;;;6.56;65.13;98351.75;4424099;32;34909;-94
2023/12/21 09:54:30;;;;;;;;;;;;;;;6.48;65.35;98345.63;4411861;32;35254;-92
2023/12/21 09:56:57;;;;;;;;;;;;;;;6.16;66.11;98345.94;4414851;32;33216;-89
2023/12/21 09:59:30;;;;;;;;;;;;;;;6.54;65.39;98335.41;4415877;32;34583;-92
2023/12/21 10:01:57;;;;;;;;;;;;;;;6.59;65.01;98326.03;4407489;32;33216;-92
2023/12/21 10:04:26;;;;;;;;;;;;;;;6.57;65.67;98336.31;4407208;32;33514;-94
2023/12/21 10:06:54;;;;;;;;;;;;;;;6.39;65.70;98337.75;4405848;32;33309;-93
2023/12/21 10:09:31;;;;;;;;;;;;;;;6.62;65.00;98340.66;4395783;32;32715;-95
2023/12/21 10:12:03;;;;;;;;;;;;;;;6.63;65.47;98339.81;4411860;32;32802;-95
2023/12/21 10:14:43;;;;;;;;;;;;;;;6.60;65.51;98316.63;4409194;32;33396;-93
2023/12/21 10:19:52;;;;;;;;;;;;;;;6.65;65.51;98299.50;4430765;32;33349;-91
2023/12/21 10:22:21;;;;;;;;;;;;;;;6.52;65.92;98294.19;4408251;32;33317;-96
2023/12/21 10:24:56;;;;;;;;;;;;;;;6.82;65.36;98303.22;4410758;32;32770;-94
2023/12/21 10:27:29;;;;;;;;;;;;;;;6.56;66.26;98287.38;4433587;32;34468;-96
2023/12/21 10:29:58;;;;;;;;;;;;;;;6.78;65.44;98281.69;4423892;32;33435;-91
2023/12/21 10:32:32;;;;;;;;;;;;;;;6.66;66.04;98276.34;4428694;32;33854;-93
2023/12/21 10:34:59;;;;;;;;;;;;;;;6.74;66.14;98273.88;4421882;32;33965;-92
2023/12/21 10:37:28;;;;;;;;;;;;;;;6.61;66.62;98262.56;4409366;32;34035;-93
2023/12/21 10:39:56;;;;;;;;;;;;;;;6.88;66.38;98251.75;4414879;32;33125;-92
2023/12/21 10:42:23;;;;;;;;;;;;;;;6.93;66.06;98242.38;4415173;32;33887;-93
2023/12/21 10:44:51;;;;;;;;;;;;;;;7.07;65.83;98240.81;4407891;32;33367;-91
2023/12/21 10:47:40;;;;;;;;;;;;;;;7.19;65.37;98219.47;4405800;32;33231;-91
2023/12/21 10:50:14;;;;;;;;;;;;;;;7.30;65.12;98214.41;4412480;32;33912;-92
2023/12/21 10:52:54;;;;;;;;;;;;;;;7.32;64.97;98213.59;4422962;32;33017;-95
2023/12/21 10:55:22;;;;;;;;;;;;;;;6.97;65.41;98202.03;4397262;32;33533;-93
2023/12/21 10:58:07;;;;;;;;;;;;;;;7.10;65.28;98185.88;4420970;32;33912;-92
2023/12/21 11:00:38;;;;;;;;;;;;;;;7.00;66.07;98171.13;4409527;32;33964;-93
2023/12/21 11:03:09;;;;;;;;;;;;;;;7.39;64.79;98156.94;4410633;32;33010;-93
2023/12/21 11:05:39;;;;;;;;;;;;;;;7.46;64.19;98164.75;4407767;32;34319;-90
2023/12/21 11:08:07;;;;;;;;;;;;;;;7.49;64.54;98157.00;4419041;32;34459;-93
2023/12/21 11:10:34;;;;;;;;;;;;;;;7.53;64.54;98145.88;4432132;32;33515;-95
2023/12/21 11:13:06;;;;;;;;;;;;;;;7.56;64.67;98139.88;4419124;32;32985;-94
2023/12/21 11:15:34;;;;;;;;;;;;;;;7.74;63.80;98141.75;4428410;32;34344;-91
2023/12/21 11:18:01;;;;;;;;;;;;;;;7.74;63.76;98119.41;4429123;32;35135;-89
2023/12/21 11:20:30;;;;;;;;;;;;;;;7.78;63.65;98131.47;4420030;32;34058;-90
2023/12/21 11:23:12;;;;;;;;;;;;;;;7.76;64.22;98114.22;4420183;32;34144;-90
2023/12/21 11:25:39;;;;;;;;;;;;;;;7.86;63.59;98110.00;4410617;32;33659;-91
2023/12/21 11:28:08;;;;;;;;;;;;;;;7.75;63.55;98099.62;4409731;32;34478;-89
2023/12/21 11:30:35;;;;;;;;;;;;;;;7.68;63.25;98100.41;4418486;32;33174;-93
2023/12/21 11:33:05;;;;;;;;;;;;;;;7.58;62.75;98099.50;4416325;32;34115;-94
2023/12/21 11:35:32;;;;;;;;;;;;;;;7.63;62.43;98095.25;4409181;32;34653;-94
2023/12/21 11:38:00;;;;;;;;;;;;;;;7.75;62.79;98078.97;4422636;32;34080;-94
2023/12/21 11:40:29;;;;;;;;;;;;;;;7.88;61.86;98085.06;4410962;32;33443;-92
2023/12/21 11:42:59;;;;;;;;;;;;;;;7.74;61.92;98075.53;4408071;32;33717;-94
2023/12/21 11:45:46;;;;;;;;;;;;;;;8.18;60.92;98068.88;4417032;32;33991;-91
2023/12/21 11:48:16;;;;;;;;;;;;;;;7.85;61.39;98062.72;4407970;32;33996;-93
2023/12/21 11:51:05;;;;;;;;;;;;;;;7.98;61.02;98058.47;4419284;32;33229;-95
2023/12/21 11:53:34;;;;;;;;;;;;;;;7.92;61.74;98053.28;4407270;32;33929;-91
2023/12/21 11:56:13;;;;;;;;;;;;;;;7.73;62.68;98040.28;4396604;32;33851;-92
2023/12/21 11:58:41;;;;;;;;;;;;;;;7.82;62.63;98036.88;4407138;32;33748;-96
2023/12/21 12:01:08;;;;;;;;;;;;;;;7.78;63.25;98033.41;4409493;32;33770;-95
2023/12/21 12:03:40;;;;;;;;;;;;;;;7.67;64.41;98029.91;4394604;32;33822;-93
2023/12/21 12:06:07;;;;;;;;;;;;;;;7.73;63.25;98024.81;4390914;32;34072;-92
2023/12/21 12:08:35;;;;;;;;;;;;;;;7.73;63.01;98023.94;4398318;32;34338;-93
2023/12/21 12:11:05;;;;;;;;;;;;;;;7.52;63.63;98012.63;4417494;32;32818;-94
2023/12/21 12:13:39;;;;;;;;;;;;;;;7.72;63.08;98017.88;4407749;32;34618;-93
2023/12/21 12:16:08;;;;;;;;;;;;;;;7.76;63.21;98022.22;4396891;32;35230;-91
2023/12/21 12:18:36;;;;;;;;;;;;;;;7.60;63.84;98001.50;4420010;32;34087;-93
2023/12/21 12:21:04;;;;;;;;;;;;;;;7.57;64.46;97992.88;4398597;32;33111;-93
2023/12/21 12:23:32;;;;;;;;;;;;;;;7.74;63.99;97990.41;4384029;32;32859;-93
2023/12/21 12:26:15;;;;;;;;;;;;;;;7.83;63.87;97979.25;4420533;32;34296;-93
2023/12/21 12:28:44;;;;;;;;;;;;;;;7.80;64.37;97979.22;4409870;32;34120;-92
2023/12/21 12:31:12;;;;;;;;;;;;;;;7.95;63.84;97978.44;4408755;32;33435;-95
2023/12/21 12:33:43;;;;;;;;;;;;;;;7.96;63.55;97967.28;4408659;32;32872;-93
2023/12/21 12:36:11;;;;;;;;;;;;;;;7.67;64.11;97972.31;4413399;32;34345;-95
2023/12/21 12:38:42;;;;;;;;;;;;;;;7.76;63.27;97947.41;4411764;32;33979;-95
2023/12/21 12:41:11;;;;;;;;;;;;;;;7.65;63.79;97949.09;4406807;32;32559;-95
2023/12/21 12:43:42;;;;;;;;;;;;;;;7.72;62.91;97935.34;4417463;32;33709;-94
2023/12/21 12:46:14;;;;;;;;;;;;;;;7.61;62.82;97947.31;4419755;32;35143;-93
2023/12/21 12:48:43;;;;;;;;;;;;;;;7.74;62.55;97922.47;4405013;32;33456;-95
2023/12/21 12:51:11;;;;;;;;;;;;;;;7.63;63.58;97913.81;4416385;32;33431;-93
2023/12/21 12:53:41;;;;;;;;;;;;;;;7.84;63.04;97898.44;4416070;32;33829;-91
2023/12/21 12:56:10;;;;;;;;;;;;;;;7.59;63.39;97881.13;4419434;32;34366;-91
2023/12/21 12:58:38;;;;;;;;;;;;;;;7.48;63.98;97870.78;4441562;32;36589;-94
2023/12/21 13:01:23;;;;;;;;;;;;;;;7.39;64.06;97875.91;4407007;32;32525;-93
2023/12/21 13:03:53;;;;;;;;;;;;;;;7.61;63.25;97869.94;4425464;32;34957;-94
2023/12/21 13:06:20;;;;;;;;;;;;;;;7.48;63.56;97871.62;4434828;32;33251;-91
2023/12/21 13:08:48;;;;;;;;;;;;;;;7.51;63.81;97857.91;4411666;32;35181;-91
2023/12/21 13:11:19;;;;;;;;;;;;;;;7.59;63.96;97856.19;4405693;32;33463;-92
2023/12/21 13:13:46;;;;;;;;;;;;;;;7.39;64.58;97847.53;4422973;32;34430;-91
2023/12/21 13:16:14;;;;;;;;;;;;;;;7.65;64.63;97835.59;4413104;32;33851;-94
2023/12/21 13:18:41;;;;;;;;;;;;;;;7.90;64.34;97830.47;4420585;32;33889;-93
2023/12/21 13:21:09;;;;;;;;;;;;;;;7.95;64.59;97821.03;4412055;32;33014;-92
2023/12/21 13:23:37;;;;;;;;;;;;;;;7.93;65.00;97815.88;4414709;32;33909;-91
2023/12/21 13:26:15;;;;;;;;;;;;;;;7.71;66.01;97808.94;4418500;32;33385;-92
2023/12/21 13:28:45;;;;;;;;;;;;;;;7.89;65.88;97802.97;4431096;32;35126;-90
2023/12/21 13:31:14;;;;;;;;;;;;;;;8.00;65.46;97785.78;4425339;32;33519;-91
2023/12/21 13:33:42;;;;;;;;;;;;;;;8.03;65.50;97775.44;4422152;32;33085;-93